sensor_id;sensor_type;location;lat;lon;timestamp;temperature;humidity
152;DHT22;68;48.792;9.164;2024-01-30T00:01:51;6.40;90.20
152;DHT22;68;48.792;9.164;2024-01-30T00:04:18;6.50;88.10
152;DHT22;68;48.792;9.164;2024-01-30T00:06:45;6.30;89.90
152;DHT22;68;48.792;9.164;2024-01-30T00:09:13;6.60;89.10
152;DHT22;68;48.792;9.164;2024-01-30T00:11:40;6.60;87.90
152;DHT22;68;48.792;9.164;2024-01-30T00:14:07;6.60;88.40
152;DHT22;68;48.792;9.164;2024-01-30T00:16:34;6.80;87.20
152;DHT22;68;48.792;9.164;2024-01-30T00:19:00;6.60;86.30
152;DHT22;68;48.792;9.164;2024-01-30T00:21:28;5.90;88.90
152;DHT22;68;48.792;9.164;2024-01-30T00:23:54;5.50;90.70
152;DHT22;68;48.792;9.164;2024-01-30T00:26:23;5.30;92.10
152;DHT22;68;48.792;9.164;2024-01-30T00:28:49;5.00;92.90
152;DHT22;68;48.792;9.164;2024-01-30T00:31:16;5.00;93.10
152;DHT22;68;48.792;9.164;2024-01-30T00:33:43;5.00;93.20
152;DHT22;68;48.792;9.164;2024-01-30T00:36:10;5.00;93.30
152;DHT22;68;48.792;9.164;2024-01-30T00:38:37;5.10;93.40
152;DHT22;68;48.792;9.164;2024-01-30T00:41:04;5.10;93.40
152;DHT22;68;48.792;9.164;2024-01-30T00:43:32;5.20;93.20
152;DHT22;68;48.792;9.164;2024-01-30T00:45:59;5.20;93.00
152;DHT22;68;48.792;9.164;2024-01-30T00:48:26;5.20;92.20
152;DHT22;68;48.792;9.164;2024-01-30T00:50:52;5.40;92.50
152;DHT22;68;48.792;9.164;2024-01-30T00:53:19;5.40;90.90
152;DHT22;68;48.792;9.164;2024-01-30T00:55:46;5.40;91.10
152;DHT22;68;48.792;9.164;2024-01-30T00:58:13;5.40;90.80
152;DHT22;68;48.792;9.164;2024-01-30T01:00:40;5.50;90.50
152;DHT22;68;48.792;9.164;2024-01-30T01:03:07;5.90;90.00
152;DHT22;68;48.792;9.164;2024-01-30T01:05:34;6.00;88.60
152;DHT22;68;48.792;9.164;2024-01-30T01:08:01;5.90;90.10
152;DHT22;68;48.792;9.164;2024-01-30T01:10:27;6.00;89.60
152;DHT22;68;48.792;9.164;2024-01-30T01:12:54;6.10;89.40
152;DHT22;68;48.792;9.164;2024-01-30T01:15:21;6.50;88.20
152;DHT22;68;48.792;9.164;2024-01-30T01:17:49;6.70;88.00
152;DHT22;68;48.792;9.164;2024-01-30T01:20:16;6.70;87.50
152;DHT22;68;48.792;9.164;2024-01-30T01:22:42;6.50;87.60
152;DHT22;68;48.792;9.164;2024-01-30T01:25:09;6.60;87.70
152;DHT22;68;48.792;9.164;2024-01-30T01:27:36;6.60;87.00
152;DHT22;68;48.792;9.164;2024-01-30T01:30:08;6.30;87.00
152;DHT22;68;48.792;9.164;2024-01-30T01:32:35;5.90;90.50
152;DHT22;68;48.792;9.164;2024-01-30T01:35:05;6.10;89.80
152;DHT22;68;48.792;9.164;2024-01-30T01:37:32;5.80;89.80
152;DHT22;68;48.792;9.164;2024-01-30T01:40:00;5.90;90.90
152;DHT22;68;48.792;9.164;2024-01-30T01:42:26;6.00;90.20
152;DHT22;68;48.792;9.164;2024-01-30T01:44:53;5.90;90.10
152;DHT22;68;48.792;9.164;2024-01-30T01:47:20;5.60;91.30
152;DHT22;68;48.792;9.164;2024-01-30T01:49:47;5.20;92.30
152;DHT22;68;48.792;9.164;2024-01-30T01:52:15;5.00;94.30
152;DHT22;68;48.792;9.164;2024-01-30T01:54:43;5.50;94.10
152;DHT22;68;48.792;9.164;2024-01-30T01:57:10;5.30;92.20
152;DHT22;68;48.792;9.164;2024-01-30T01:59:37;5.00;94.80
152;DHT22;68;48.792;9.164;2024-01-30T02:02:04;4.90;93.70
152;DHT22;68;48.792;9.164;2024-01-30T02:04:33;4.80;93.80
152;DHT22;68;48.792;9.164;2024-01-30T02:06:59;4.90;93.60
152;DHT22;68;48.792;9.164;2024-01-30T02:09:28;5.10;94.30
152;DHT22;68;48.792;9.164;2024-01-30T02:11:54;5.40;92.90
152;DHT22;68;48.792;9.164;2024-01-30T02:14:21;5.60;92.50
152;DHT22;68;48.792;9.164;2024-01-30T02:16:48;5.40;91.10
152;DHT22;68;48.792;9.164;2024-01-30T02:19:15;5.10;93.50
152;DHT22;68;48.792;9.164;2024-01-30T02:21:43;4.90;93.50
152;DHT22;68;48.792;9.164;2024-01-30T02:24:10;4.90;93.80
152;DHT22;68;48.792;9.164;2024-01-30T02:26:37;5.00;93.10
152;DHT22;68;48.792;9.164;2024-01-30T02:29:04;5.40;92.60
152;DHT22;68;48.792;9.164;2024-01-30T02:31:30;5.60;91.70
152;DHT22;68;48.792;9.164;2024-01-30T02:33:57;5.10;92.10
152;DHT22;68;48.792;9.164;2024-01-30T02:36:24;4.80;94.00
152;DHT22;68;48.792;9.164;2024-01-30T02:38:52;4.60;94.80
152;DHT22;68;48.792;9.164;2024-01-30T02:41:19;4.70;95.20
152;DHT22;68;48.792;9.164;2024-01-30T02:43:45;4.60;95.10
152;DHT22;68;48.792;9.164;2024-01-30T02:46:12;4.40;95.40
152;DHT22;68;48.792;9.164;2024-01-30T02:48:39;4.40;95.60
152;DHT22;68;48.792;9.164;2024-01-30T02:51:06;4.40;95.90
152;DHT22;68;48.792;9.164;2024-01-30T02:53:32;4.40;95.60
152;DHT22;68;48.792;9.164;2024-01-30T02:56:01;4.50;94.90
152;DHT22;68;48.792;9.164;2024-01-30T02:58:28;4.60;94.30
152;DHT22;68;48.792;9.164;2024-01-30T03:00:55;4.70;93.90
152;DHT22;68;48.792;9.164;2024-01-30T03:03:21;4.70;93.70
152;DHT22;68;48.792;9.164;2024-01-30T03:05:48;4.70;93.50
152;DHT22;68;48.792;9.164;2024-01-30T03:08:15;4.70;93.30
152;DHT22;68;48.792;9.164;2024-01-30T03:10:42;4.80;93.10
152;DHT22;68;48.792;9.164;2024-01-30T03:13:10;4.80;93.10
152;DHT22;68;48.792;9.164;2024-01-30T03:15:36;5.10;94.10
152;DHT22;68;48.792;9.164;2024-01-30T03:18:04;5.50;91.90
152;DHT22;68;48.792;9.164;2024-01-30T03:20:31;5.60;90.20
152;DHT22;68;48.792;9.164;2024-01-30T03:22:59;5.40;90.10
152;DHT22;68;48.792;9.164;2024-01-30T03:25:26;5.40;91.50
152;DHT22;68;48.792;9.164;2024-01-30T03:27:53;4.90;92.10
152;DHT22;68;48.792;9.164;2024-01-30T03:30:21;4.80;93.60
152;DHT22;68;48.792;9.164;2024-01-30T03:32:48;5.00;94.80
152;DHT22;68;48.792;9.164;2024-01-30T03:35:15;5.40;93.20
152;DHT22;68;48.792;9.164;2024-01-30T03:37:42;5.70;91.10
152;DHT22;68;48.792;9.164;2024-01-30T03:40:10;5.00;92.60
152;DHT22;68;48.792;9.164;2024-01-30T03:42:38;5.40;93.50
152;DHT22;68;48.792;9.164;2024-01-30T03:45:05;5.20;91.80
152;DHT22;68;48.792;9.164;2024-01-30T03:47:34;4.60;93.60
152;DHT22;68;48.792;9.164;2024-01-30T03:50:00;4.90;94.70
152;DHT22;68;48.792;9.164;2024-01-30T03:52:27;4.50;94.40
152;DHT22;68;48.792;9.164;2024-01-30T03:54:54;4.30;95.10
152;DHT22;68;48.792;9.164;2024-01-30T03:57:20;4.30;95.20
152;DHT22;68;48.792;9.164;2024-01-30T03:59:47;4.30;95.20
152;DHT22;68;48.792;9.164;2024-01-30T04:02:14;4.30;95.30
152;DHT22;68;48.792;9.164;2024-01-30T04:04:42;4.20;95.30
152;DHT22;68;48.792;9.164;2024-01-30T04:09:36;4.20;95.40
152;DHT22;68;48.792;9.164;2024-01-30T04:12:04;4.20;95.80
152;DHT22;68;48.792;9.164;2024-01-30T04:14:31;4.20;95.80
152;DHT22;68;48.792;9.164;2024-01-30T04:16:58;4.40;96.30
152;DHT22;68;48.792;9.164;2024-01-30T04:19:25;4.90;95.30
152;DHT22;68;48.792;9.164;2024-01-30T04:21:53;4.80;93.00
152;DHT22;68;48.792;9.164;2024-01-30T04:24:19;4.30;94.70
152;DHT22;68;48.792;9.164;2024-01-30T04:26:46;4.10;95.40
152;DHT22;68;48.792;9.164;2024-01-30T04:29:13;4.20;96.10
152;DHT22;68;48.792;9.164;2024-01-30T04:31:40;4.60;96.20
152;DHT22;68;48.792;9.164;2024-01-30T04:34:06;5.00;94.20
152;DHT22;68;48.792;9.164;2024-01-30T04:36:33;4.80;94.50
152;DHT22;68;48.792;9.164;2024-01-30T04:39:01;4.60;94.40
152;DHT22;68;48.792;9.164;2024-01-30T04:41:29;4.80;94.80
152;DHT22;68;48.792;9.164;2024-01-30T04:43:57;4.40;94.20
152;DHT22;68;48.792;9.164;2024-01-30T04:46:24;4.00;96.20
152;DHT22;68;48.792;9.164;2024-01-30T04:48:50;3.70;96.80
152;DHT22;68;48.792;9.164;2024-01-30T04:51:17;3.60;97.10
152;DHT22;68;48.792;9.164;2024-01-30T04:53:44;3.60;97.20
152;DHT22;68;48.792;9.164;2024-01-30T04:56:12;3.70;97.20
152;DHT22;68;48.792;9.164;2024-01-30T04:58:39;3.70;97.10
152;DHT22;68;48.792;9.164;2024-01-30T05:01:05;3.80;96.80
152;DHT22;68;48.792;9.164;2024-01-30T05:03:33;3.90;96.70
152;DHT22;68;48.792;9.164;2024-01-30T05:06:00;4.40;96.80
152;DHT22;68;48.792;9.164;2024-01-30T05:08:27;4.70;95.60
152;DHT22;68;48.792;9.164;2024-01-30T05:10:54;4.90;94.30
152;DHT22;68;48.792;9.164;2024-01-30T05:13:22;4.90;94.10
152;DHT22;68;48.792;9.164;2024-01-30T05:15:49;4.60;94.70
152;DHT22;68;48.792;9.164;2024-01-30T05:18:15;4.40;95.30
152;DHT22;68;48.792;9.164;2024-01-30T05:20:42;4.10;96.60
152;DHT22;68;48.792;9.164;2024-01-30T05:23:09;3.80;96.70
152;DHT22;68;48.792;9.164;2024-01-30T05:25:35;3.50;97.00
152;DHT22;68;48.792;9.164;2024-01-30T05:28:02;3.40;96.80
152;DHT22;68;48.792;9.164;2024-01-30T05:30:31;3.40;97.10
152;DHT22;68;48.792;9.164;2024-01-30T05:32:57;3.60;96.90
152;DHT22;68;48.792;9.164;2024-01-30T05:35:24;3.70;96.90
152;DHT22;68;48.792;9.164;2024-01-30T05:37:51;4.20;97.20
152;DHT22;68;48.792;9.164;2024-01-30T05:40:18;4.50;96.40
152;DHT22;68;48.792;9.164;2024-01-30T05:42:44;4.80;95.00
152;DHT22;68;48.792;9.164;2024-01-30T05:45:11;5.00;93.60
152;DHT22;68;48.792;9.164;2024-01-30T05:47:39;4.80;93.70
152;DHT22;68;48.792;9.164;2024-01-30T05:50:07;5.00;94.10
152;DHT22;68;48.792;9.164;2024-01-30T05:52:34;5.10;92.70
152;DHT22;68;48.792;9.164;2024-01-30T05:55:01;5.10;93.50
152;DHT22;68;48.792;9.164;2024-01-30T05:57:27;4.70;92.60
152;DHT22;68;48.792;9.164;2024-01-30T05:59:54;4.20;95.60
152;DHT22;68;48.792;9.164;2024-01-30T06:02:21;4.10;96.60
152;DHT22;68;48.792;9.164;2024-01-30T06:04:49;3.90;96.30
152;DHT22;68;48.792;9.164;2024-01-30T06:07:16;3.60;96.80
152;DHT22;68;48.792;9.164;2024-01-30T06:09:43;3.50;97.10
152;DHT22;68;48.792;9.164;2024-01-30T06:12:11;3.80;96.90
152;DHT22;68;48.792;9.164;2024-01-30T06:14:38;3.80;96.70
152;DHT22;68;48.792;9.164;2024-01-30T06:17:05;3.90;96.90
152;DHT22;68;48.792;9.164;2024-01-30T06:19:31;4.30;96.30
152;DHT22;68;48.792;9.164;2024-01-30T06:22:00;4.60;95.20
152;DHT22;68;48.792;9.164;2024-01-30T06:24:26;4.70;94.20
152;DHT22;68;48.792;9.164;2024-01-30T06:26:54;4.90;93.50
152;DHT22;68;48.792;9.164;2024-01-30T06:29:20;5.10;92.90
152;DHT22;68;48.792;9.164;2024-01-30T06:31:47;4.90;92.10
152;DHT22;68;48.792;9.164;2024-01-30T06:34:14;4.40;94.10
152;DHT22;68;48.792;9.164;2024-01-30T06:36:41;4.60;95.10
152;DHT22;68;48.792;9.164;2024-01-30T06:39:09;4.80;93.30
152;DHT22;68;48.792;9.164;2024-01-30T06:41:35;4.20;94.00
152;DHT22;68;48.792;9.164;2024-01-30T06:44:02;3.70;95.70
152;DHT22;68;48.792;9.164;2024-01-30T06:46:31;3.60;96.40
152;DHT22;68;48.792;9.164;2024-01-30T06:48:58;3.60;96.40
152;DHT22;68;48.792;9.164;2024-01-30T06:51:25;3.70;96.10
152;DHT22;68;48.792;9.164;2024-01-30T06:53:52;3.70;95.90
152;DHT22;68;48.792;9.164;2024-01-30T06:56:20;3.70;95.70
152;DHT22;68;48.792;9.164;2024-01-30T06:58:47;3.80;95.50
152;DHT22;68;48.792;9.164;2024-01-30T07:01:14;3.80;95.50
152;DHT22;68;48.792;9.164;2024-01-30T07:03:41;4.10;96.20
152;DHT22;68;48.792;9.164;2024-01-30T07:06:08;4.50;94.90
152;DHT22;68;48.792;9.164;2024-01-30T07:08:36;4.70;93.70
152;DHT22;68;48.792;9.164;2024-01-30T07:11:04;4.20;93.50
152;DHT22;68;48.792;9.164;2024-01-30T07:13:33;3.90;95.00
152;DHT22;68;48.792;9.164;2024-01-30T07:16:00;3.90;96.00
152;DHT22;68;48.792;9.164;2024-01-30T07:18:27;3.80;95.80
152;DHT22;68;48.792;9.164;2024-01-30T07:20:54;4.00;96.40
152;DHT22;68;48.792;9.164;2024-01-30T07:23:20;4.30;95.80
152;DHT22;68;48.792;9.164;2024-01-30T07:25:48;4.40;94.40
152;DHT22;68;48.792;9.164;2024-01-30T07:28:15;4.30;93.80
152;DHT22;68;48.792;9.164;2024-01-30T07:30:44;4.20;95.50
152;DHT22;68;48.792;9.164;2024-01-30T07:33:11;4.10;95.30
152;DHT22;68;48.792;9.164;2024-01-30T07:35:38;4.10;95.80
152;DHT22;68;48.792;9.164;2024-01-30T07:38:04;3.90;95.80
152;DHT22;68;48.792;9.164;2024-01-30T07:40:31;3.90;95.60
152;DHT22;68;48.792;9.164;2024-01-30T07:42:58;3.90;95.90
152;DHT22;68;48.792;9.164;2024-01-30T07:45:26;4.00;95.70
152;DHT22;68;48.792;9.164;2024-01-30T07:47:59;4.00;95.00
152;DHT22;68;48.792;9.164;2024-01-30T07:50:26;4.20;94.60
152;DHT22;68;48.792;9.164;2024-01-30T07:52:53;4.50;95.10
152;DHT22;68;48.792;9.164;2024-01-30T07:55:20;4.50;93.10
152;DHT22;68;48.792;9.164;2024-01-30T07:57:50;4.60;93.80
152;DHT22;68;48.792;9.164;2024-01-30T08:00:17;4.90;93.70
152;DHT22;68;48.792;9.164;2024-01-30T08:02:45;5.20;92.70
152;DHT22;68;48.792;9.164;2024-01-30T08:05:13;5.50;91.90
152;DHT22;68;48.792;9.164;2024-01-30T08:07:40;5.70;90.90
152;DHT22;68;48.792;9.164;2024-01-30T08:10:08;5.90;89.90
152;DHT22;68;48.792;9.164;2024-01-30T08:12:35;5.90;88.50
152;DHT22;68;48.792;9.164;2024-01-30T08:15:02;5.90;89.20
152;DHT22;68;48.792;9.164;2024-01-30T08:17:28;6.00;89.40
152;DHT22;68;48.792;9.164;2024-01-30T08:19:55;6.20;89.40
152;DHT22;68;48.792;9.164;2024-01-30T08:22:23;6.30;88.80
152;DHT22;68;48.792;9.164;2024-01-30T08:24:50;6.20;88.70
152;DHT22;68;48.792;9.164;2024-01-30T08:27:17;6.30;89.50
152;DHT22;68;48.792;9.164;2024-01-30T08:29:44;6.30;88.70
152;DHT22;68;48.792;9.164;2024-01-30T08:32:11;6.20;90.00
152;DHT22;68;48.792;9.164;2024-01-30T08:34:38;6.60;88.30
152;DHT22;68;48.792;9.164;2024-01-30T08:37:05;6.30;89.50
152;DHT22;68;48.792;9.164;2024-01-30T08:39:33;6.10;90.60
152;DHT22;68;48.792;9.164;2024-01-30T08:42:00;6.00;90.70
152;DHT22;68;48.792;9.164;2024-01-30T08:44:26;6.10;90.30
152;DHT22;68;48.792;9.164;2024-01-30T08:46:53;6.20;89.60
152;DHT22;68;48.792;9.164;2024-01-30T08:49:20;6.30;88.30
152;DHT22;68;48.792;9.164;2024-01-30T08:51:47;6.50;87.90
152;DHT22;68;48.792;9.164;2024-01-30T08:54:14;6.70;86.50
152;DHT22;68;48.792;9.164;2024-01-30T08:56:42;7.10;84.20
152;DHT22;68;48.792;9.164;2024-01-30T08:59:09;7.20;83.90
152;DHT22;68;48.792;9.164;2024-01-30T09:01:36;7.50;81.80
152;DHT22;68;48.792;9.164;2024-01-30T09:04:03;7.20;82.10
152;DHT22;68;48.792;9.164;2024-01-30T09:06:30;7.30;83.10
152;DHT22;68;48.792;9.164;2024-01-30T09:08:57;7.10;83.40
152;DHT22;68;48.792;9.164;2024-01-30T09:11:24;7.20;84.20
152;DHT22;68;48.792;9.164;2024-01-30T09:13:52;7.60;82.80
152;DHT22;68;48.792;9.164;2024-01-30T09:16:18;8.00;81.00
152;DHT22;68;48.792;9.164;2024-01-30T09:18:45;8.10;80.20
152;DHT22;68;48.792;9.164;2024-01-30T09:21:12;8.10;79.90
152;DHT22;68;48.792;9.164;2024-01-30T09:23:41;8.00;81.00
152;DHT22;68;48.792;9.164;2024-01-30T09:26:08;8.30;79.90
152;DHT22;68;48.792;9.164;2024-01-30T09:28:35;8.70;78.40
152;DHT22;68;48.792;9.164;2024-01-30T09:31:04;8.70;78.50
152;DHT22;68;48.792;9.164;2024-01-30T09:33:30;8.90;78.80
152;DHT22;68;48.792;9.164;2024-01-30T09:35:57;8.80;79.00
152;DHT22;68;48.792;9.164;2024-01-30T09:38:24;8.40;80.70
152;DHT22;68;48.792;9.164;2024-01-30T09:40:53;8.20;81.50
152;DHT22;68;48.792;9.164;2024-01-30T09:43:23;8.00;82.20
152;DHT22;68;48.792;9.164;2024-01-30T09:45:50;8.50;80.50
152;DHT22;68;48.792;9.164;2024-01-30T09:48:19;8.90;79.10
152;DHT22;68;48.792;9.164;2024-01-30T09:50:46;9.20;78.20
152;DHT22;68;48.792;9.164;2024-01-30T09:53:13;9.10;78.50
152;DHT22;68;48.792;9.164;2024-01-30T09:55:43;9.30;78.40
152;DHT22;68;48.792;9.164;2024-01-30T09:58:12;9.60;77.40
152;DHT22;68;48.792;9.164;2024-01-30T10:00:39;9.70;76.70
152;DHT22;68;48.792;9.164;2024-01-30T10:03:05;9.40;76.10
152;DHT22;68;48.792;9.164;2024-01-30T10:05:35;9.10;78.40
152;DHT22;68;48.792;9.164;2024-01-30T10:08:06;9.30;78.80
152;DHT22;68;48.792;9.164;2024-01-30T10:10:33;9.60;77.70
152;DHT22;68;48.792;9.164;2024-01-30T10:13:00;9.90;75.90
152;DHT22;68;48.792;9.164;2024-01-30T10:15:28;9.90;75.50
152;DHT22;68;48.792;9.164;2024-01-30T10:17:55;9.60;77.60
152;DHT22;68;48.792;9.164;2024-01-30T10:20:22;9.70;77.70
152;DHT22;68;48.792;9.164;2024-01-30T10:22:52;9.80;76.30
152;DHT22;68;48.792;9.164;2024-01-30T10:25:21;10.00;76.40
152;DHT22;68;48.792;9.164;2024-01-30T10:27:52;10.40;75.10
152;DHT22;68;48.792;9.164;2024-01-30T10:30:19;10.60;74.10
152;DHT22;68;48.792;9.164;2024-01-30T10:32:46;10.60;74.20
152;DHT22;68;48.792;9.164;2024-01-30T10:35:13;10.70;74.20
152;DHT22;68;48.792;9.164;2024-01-30T10:37:41;10.70;74.20
152;DHT22;68;48.792;9.164;2024-01-30T10:40:13;10.80;73.70
152;DHT22;68;48.792;9.164;2024-01-30T10:42:43;10.70;74.10
152;DHT22;68;48.792;9.164;2024-01-30T10:45:11;10.90;73.30
152;DHT22;68;48.792;9.164;2024-01-30T10:47:40;11.10;72.90
152;DHT22;68;48.792;9.164;2024-01-30T10:50:08;11.10;72.90
152;DHT22;68;48.792;9.164;2024-01-30T10:52:36;11.10;73.10
152;DHT22;68;48.792;9.164;2024-01-30T10:55:04;11.00;72.70
152;DHT22;68;48.792;9.164;2024-01-30T10:57:34;11.00;73.50
152;DHT22;68;48.792;9.164;2024-01-30T11:00:03;10.90;74.10
152;DHT22;68;48.792;9.164;2024-01-30T11:02:32;11.10;73.60
152;DHT22;68;48.792;9.164;2024-01-30T11:04:59;11.00;74.10
152;DHT22;68;48.792;9.164;2024-01-30T11:07:27;10.90;74.40
152;DHT22;68;48.792;9.164;2024-01-30T11:10:03;11.20;74.10
152;DHT22;68;48.792;9.164;2024-01-30T11:12:31;11.60;71.60
152;DHT22;68;48.792;9.164;2024-01-30T11:15:05;11.80;71.60
152;DHT22;68;48.792;9.164;2024-01-30T11:17:49;11.90;71.00
152;DHT22;68;48.792;9.164;2024-01-30T11:20:18;12.10;71.10
152;DHT22;68;48.792;9.164;2024-01-30T11:22:46;12.10;70.90
152;DHT22;68;48.792;9.164;2024-01-30T11:25:14;12.20;70.60
152;DHT22;68;48.792;9.164;2024-01-30T11:27:42;12.10;71.20
152;DHT22;68;48.792;9.164;2024-01-30T11:30:10;12.10;71.60
152;DHT22;68;48.792;9.164;2024-01-30T11:32:38;12.10;71.60
152;DHT22;68;48.792;9.164;2024-01-30T11:35:05;12.20;71.50
152;DHT22;68;48.792;9.164;2024-01-30T11:37:37;12.40;71.40
152;DHT22;68;48.792;9.164;2024-01-30T11:40:05;12.30;71.10
152;DHT22;68;48.792;9.164;2024-01-30T11:42:32;12.40;71.30
152;DHT22;68;48.792;9.164;2024-01-30T11:45:00;12.20;71.40
152;DHT22;68;48.792;9.164;2024-01-30T11:47:29;12.20;71.40
152;DHT22;68;48.792;9.164;2024-01-30T11:49:56;12.20;71.40
152;DHT22;68;48.792;9.164;2024-01-30T11:52:23;12.20;71.70
152;DHT22;68;48.792;9.164;2024-01-30T11:54:50;12.40;71.50
152;DHT22;68;48.792;9.164;2024-01-30T11:57:16;12.50;71.00
152;DHT22;68;48.792;9.164;2024-01-30T11:59:43;12.00;73.20
152;DHT22;68;48.792;9.164;2024-01-30T12:02:15;12.00;73.60
152;DHT22;68;48.792;9.164;2024-01-30T12:04:43;11.90;74.10
152;DHT22;68;48.792;9.164;2024-01-30T12:07:10;12.40;72.20
152;DHT22;68;48.792;9.164;2024-01-30T12:09:37;12.70;71.30
152;DHT22;68;48.792;9.164;2024-01-30T12:12:06;12.60;71.80
152;DHT22;68;48.792;9.164;2024-01-30T12:14:37;12.90;70.40
152;DHT22;68;48.792;9.164;2024-01-30T12:17:04;12.80;71.00
152;DHT22;68;48.792;9.164;2024-01-30T12:19:33;13.10;70.80
152;DHT22;68;48.792;9.164;2024-01-30T12:22:01;13.20;70.00
152;DHT22;68;48.792;9.164;2024-01-30T12:24:28;13.30;69.70
152;DHT22;68;48.792;9.164;2024-01-30T12:26:57;13.30;69.60
152;DHT22;68;48.792;9.164;2024-01-30T12:29:23;13.40;69.50
152;DHT22;68;48.792;9.164;2024-01-30T12:31:53;13.50;68.80
152;DHT22;68;48.792;9.164;2024-01-30T12:34:20;13.60;68.60
152;DHT22;68;48.792;9.164;2024-01-30T12:36:47;13.60;68.60
152;DHT22;68;48.792;9.164;2024-01-30T12:39:15;13.60;68.50
152;DHT22;68;48.792;9.164;2024-01-30T12:41:42;13.50;69.20
152;DHT22;68;48.792;9.164;2024-01-30T12:44:09;13.70;69.50
152;DHT22;68;48.792;9.164;2024-01-30T12:46:36;13.80;68.90
152;DHT22;68;48.792;9.164;2024-01-30T12:49:02;13.80;68.00
152;DHT22;68;48.792;9.164;2024-01-30T12:51:29;13.80;68.20
152;DHT22;68;48.792;9.164;2024-01-30T12:53:56;13.90;67.90
152;DHT22;68;48.792;9.164;2024-01-30T12:56:24;14.00;67.30
152;DHT22;68;48.792;9.164;2024-01-30T12:58:51;14.00;67.60
152;DHT22;68;48.792;9.164;2024-01-30T13:01:18;14.00;67.10
152;DHT22;68;48.792;9.164;2024-01-30T13:03:45;14.20;66.70
152;DHT22;68;48.792;9.164;2024-01-30T13:06:12;14.10;67.20
152;DHT22;68;48.792;9.164;2024-01-30T13:08:38;14.00;67.50
152;DHT22;68;48.792;9.164;2024-01-30T13:11:05;13.80;68.90
152;DHT22;68;48.792;9.164;2024-01-30T13:13:33;13.40;70.00
152;DHT22;68;48.792;9.164;2024-01-30T13:16:01;13.50;70.70
152;DHT22;68;48.792;9.164;2024-01-30T13:18:28;13.20;69.90
152;DHT22;68;48.792;9.164;2024-01-30T13:20:54;13.10;70.60
152;DHT22;68;48.792;9.164;2024-01-30T13:23:21;12.90;69.40
152;DHT22;68;48.792;9.164;2024-01-30T13:25:48;13.50;70.50
152;DHT22;68;48.792;9.164;2024-01-30T13:28:15;13.90;68.90
152;DHT22;68;48.792;9.164;2024-01-30T13:30:43;14.20;67.60
152;DHT22;68;48.792;9.164;2024-01-30T13:33:10;13.60;69.20
152;DHT22;68;48.792;9.164;2024-01-30T13:35:36;13.20;70.10
152;DHT22;68;48.792;9.164;2024-01-30T13:38:03;13.30;70.10
152;DHT22;68;48.792;9.164;2024-01-30T13:40:30;13.50;68.90
152;DHT22;68;48.792;9.164;2024-01-30T13:42:57;13.20;69.90
152;DHT22;68;48.792;9.164;2024-01-30T13:45:24;13.10;70.80
152;DHT22;68;48.792;9.164;2024-01-30T13:47:52;13.30;69.30
152;DHT22;68;48.792;9.164;2024-01-30T13:50:18;12.70;70.70
152;DHT22;68;48.792;9.164;2024-01-30T13:52:45;12.30;71.70
152;DHT22;68;48.792;9.164;2024-01-30T13:55:12;12.20;72.30
152;DHT22;68;48.792;9.164;2024-01-30T13:57:39;11.90;73.40
152;DHT22;68;48.792;9.164;2024-01-30T14:00:07;11.70;73.00
152;DHT22;68;48.792;9.164;2024-01-30T14:02:34;11.50;73.30
152;DHT22;68;48.792;9.164;2024-01-30T14:05:02;11.50;73.80
152;DHT22;68;48.792;9.164;2024-01-30T14:07:31;11.40;74.70
152;DHT22;68;48.792;9.164;2024-01-30T14:09:58;11.50;73.90
152;DHT22;68;48.792;9.164;2024-01-30T14:12:25;11.40;74.20
152;DHT22;68;48.792;9.164;2024-01-30T14:14:51;11.30;73.50
152;DHT22;68;48.792;9.164;2024-01-30T14:17:18;11.40;73.20
152;DHT22;68;48.792;9.164;2024-01-30T14:19:45;11.40;73.00
152;DHT22;68;48.792;9.164;2024-01-30T14:22:13;11.30;73.60
152;DHT22;68;48.792;9.164;2024-01-30T14:24:40;11.40;74.10
152;DHT22;68;48.792;9.164;2024-01-30T14:27:06;11.40;73.50
152;DHT22;68;48.792;9.164;2024-01-30T14:29:34;11.40;73.60
152;DHT22;68;48.792;9.164;2024-01-30T14:32:01;11.30;73.80
152;DHT22;68;48.792;9.164;2024-01-30T14:34:29;11.30;73.60
152;DHT22;68;48.792;9.164;2024-01-30T14:36:56;11.30;74.00
152;DHT22;68;48.792;9.164;2024-01-30T14:39:24;11.30;74.20
152;DHT22;68;48.792;9.164;2024-01-30T14:41:51;11.30;74.20
152;DHT22;68;48.792;9.164;2024-01-30T14:44:18;11.30;74.10
152;DHT22;68;48.792;9.164;2024-01-30T14:46:45;11.30;74.10
152;DHT22;68;48.792;9.164;2024-01-30T14:49:11;11.40;74.80
152;DHT22;68;48.792;9.164;2024-01-30T14:51:38;11.50;74.50
152;DHT22;68;48.792;9.164;2024-01-30T14:54:05;11.40;75.10
152;DHT22;68;48.792;9.164;2024-01-30T14:56:33;11.30;75.30
152;DHT22;68;48.792;9.164;2024-01-30T14:59:00;11.30;75.80
152;DHT22;68;48.792;9.164;2024-01-30T15:01:27;11.30;75.90
152;DHT22;68;48.792;9.164;2024-01-30T15:03:54;11.30;75.90
152;DHT22;68;48.792;9.164;2024-01-30T15:06:21;11.20;76.00
152;DHT22;68;48.792;9.164;2024-01-30T15:08:49;11.20;76.10
152;DHT22;68;48.792;9.164;2024-01-30T15:11:16;11.20;75.90
152;DHT22;68;48.792;9.164;2024-01-30T15:13:44;11.10;76.60
152;DHT22;68;48.792;9.164;2024-01-30T15:16:12;11.10;77.00
152;DHT22;68;48.792;9.164;2024-01-30T15:18:38;11.00;77.40
152;DHT22;68;48.792;9.164;2024-01-30T15:21:05;10.90;78.10
152;DHT22;68;48.792;9.164;2024-01-30T15:23:32;10.80;78.50
152;DHT22;68;48.792;9.164;2024-01-30T15:25:59;10.90;77.50
152;DHT22;68;48.792;9.164;2024-01-30T15:28:34;10.80;77.80
152;DHT22;68;48.792;9.164;2024-01-30T15:31:03;10.80;77.90
152;DHT22;68;48.792;9.164;2024-01-30T15:33:31;10.80;78.00
152;DHT22;68;48.792;9.164;2024-01-30T15:35:57;10.80;78.20
152;DHT22;68;48.792;9.164;2024-01-30T15:38:24;10.70;78.80
152;DHT22;68;48.792;9.164;2024-01-30T15:40:52;10.60;79.60
152;DHT22;68;48.792;9.164;2024-01-30T15:43:18;10.50;80.10
152;DHT22;68;48.792;9.164;2024-01-30T15:45:45;10.40;81.00
152;DHT22;68;48.792;9.164;2024-01-30T15:48:14;10.30;81.80
152;DHT22;68;48.792;9.164;2024-01-30T15:50:40;10.20;81.90
152;DHT22;68;48.792;9.164;2024-01-30T15:53:07;10.20;82.10
152;DHT22;68;48.792;9.164;2024-01-30T15:55:34;10.10;83.10
152;DHT22;68;48.792;9.164;2024-01-30T15:58:01;10.40;82.70
152;DHT22;68;48.792;9.164;2024-01-30T16:00:28;10.40;82.50
152;DHT22;68;48.792;9.164;2024-01-30T16:02:56;10.20;82.60
152;DHT22;68;48.792;9.164;2024-01-30T16:05:24;9.90;83.70
152;DHT22;68;48.792;9.164;2024-01-30T16:07:51;9.80;84.40
152;DHT22;68;48.792;9.164;2024-01-30T16:10:17;9.70;84.80
152;DHT22;68;48.792;9.164;2024-01-30T16:12:44;9.60;85.20
152;DHT22;68;48.792;9.164;2024-01-30T16:15:12;9.60;85.20
152;DHT22;68;48.792;9.164;2024-01-30T16:17:38;9.50;85.80
152;DHT22;68;48.792;9.164;2024-01-30T16:20:06;9.50;86.10
152;DHT22;68;48.792;9.164;2024-01-30T16:22:35;9.50;86.20
152;DHT22;68;48.792;9.164;2024-01-30T16:25:02;9.40;86.30
152;DHT22;68;48.792;9.164;2024-01-30T16:27:29;9.40;86.40
152;DHT22;68;48.792;9.164;2024-01-30T16:29:56;9.40;86.30
152;DHT22;68;48.792;9.164;2024-01-30T16:32:23;9.40;86.10
152;DHT22;68;48.792;9.164;2024-01-30T16:34:50;9.40;86.30
152;DHT22;68;48.792;9.164;2024-01-30T16:37:16;9.30;86.60
152;DHT22;68;48.792;9.164;2024-01-30T16:39:45;9.20;86.90
152;DHT22;68;48.792;9.164;2024-01-30T16:42:12;9.20;86.60
152;DHT22;68;48.792;9.164;2024-01-30T16:44:39;9.20;86.50
152;DHT22;68;48.792;9.164;2024-01-30T16:47:06;9.10;86.20
152;DHT22;68;48.792;9.164;2024-01-30T16:49:33;9.10;86.20
152;DHT22;68;48.792;9.164;2024-01-30T16:51:59;9.10;85.80
152;DHT22;68;48.792;9.164;2024-01-30T16:54:26;9.10;85.50
152;DHT22;68;48.792;9.164;2024-01-30T16:56:54;9.10;85.20
152;DHT22;68;48.792;9.164;2024-01-30T16:59:21;9.20;85.10
152;DHT22;68;48.792;9.164;2024-01-30T17:01:48;9.20;85.40
152;DHT22;68;48.792;9.164;2024-01-30T17:04:15;9.20;85.60
152;DHT22;68;48.792;9.164;2024-01-30T17:06:43;9.20;85.80